Nether Providence, Pennsylvania
Current Conditions -  °F | °C
As of 3:54 AM on Friday 24 Oct 2014 (Local Time) from KPHL Reporting Station
Scattered Clouds Scattered Clouds  
Wind Chill: 56°   Ceiling: Unl
Heat Index: 56°   Visibility: 10mi
Dew Point: 45°   Wind: 5mph
Humidity: 67%   Direction: 300°WNW
Pressure: 29.84"   Gusts: NA
Location:  39.8901°N, 75.3702°W
Report Text: KPHL 240754Z 30004KT 10SM SCT030 SCT045 13/07 A2984 RMK AO2 SLP105 T01330072 PNO $
Loading
Personal Weather Stations






























Interactive Weather Map
Tropical Storm Tracking
New forecast layout! Learn more

10-Day Weather Forecast

Advertisements
Track Severe Weather on mobile